sensor_id;sensor_type;location;lat;lon;timestamp;pressure;altitude;pressure_sealevel;temperature;humidity
11692;BME280;33659;42.672;23.354;2024-02-21T00:02:20;67700.13;;;6.67;76.74
11692;BME280;33659;42.672;23.354;2024-02-21T00:04:47;67704.56;;;6.74;76.29
11692;BME280;33659;42.672;23.354;2024-02-21T00:07:15;67706.72;;;6.76;76.02
11692;BME280;33659;42.672;23.354;2024-02-21T00:09:42;67713.59;;;6.80;75.91
11692;BME280;33659;42.672;23.354;2024-02-21T00:12:09;67707.13;;;6.74;76.10
11692;BME280;33659;42.672;23.354;2024-02-21T00:14:35;67700.25;;;6.70;76.22
11692;BME280;33659;42.672;23.354;2024-02-21T00:17:02;67704.31;;;6.69;76.58
11692;BME280;33659;42.672;23.354;2024-02-21T00:19:30;67704.97;;;6.72;76.43
11692;BME280;33659;42.672;23.354;2024-02-21T00:21:57;67708.75;;;6.75;76.37
11692;BME280;33659;42.672;23.354;2024-02-21T00:24:23;67702.84;;;6.70;76.36
11692;BME280;33659;42.672;23.354;2024-02-21T00:26:50;67700.13;;;6.67;76.64
11692;BME280;33659;42.672;23.354;2024-02-21T00:29:17;67698.50;;;6.66;76.62
11692;BME280;33659;42.672;23.354;2024-02-21T00:31:43;67694.72;;;6.62;76.70
11692;BME280;33659;42.672;23.354;2024-02-21T00:34:10;67697.44;;;6.65;76.73
11692;BME280;33659;42.672;23.354;2024-02-21T00:36:39;67697.00;;;6.67;76.55
11692;BME280;33659;42.672;23.354;2024-02-21T00:39:06;67694.19;;;6.62;76.58
11692;BME280;33659;42.672;23.354;2024-02-21T00:41:32;67701.88;;;6.71;76.45
11692;BME280;33659;42.672;23.354;2024-02-21T00:43:59;67700.13;;;6.67;76.66
11692;BME280;33659;42.672;23.354;2024-02-21T00:46:26;67692.03;;;6.60;76.69
11692;BME280;33659;42.672;23.354;2024-02-21T00:48:52;67688.25;;;6.56;77.05
11692;BME280;33659;42.672;23.354;2024-02-21T00:51:19;67684.06;;;6.55;77.24
11692;BME280;33659;42.672;23.354;2024-02-21T00:53:47;67690.97;;;6.59;77.26
11692;BME280;33659;42.672;23.354;2024-02-21T00:56:14;67700.25;;;6.70;76.75
11692;BME280;33659;42.672;23.354;2024-02-21T00:58:40;67698.50;;;6.66;76.89
11692;BME280;33659;42.672;23.354;2024-02-21T01:01:07;67700.13;;;6.67;76.81
11692;BME280;33659;42.672;23.354;2024-02-21T01:03:34;67694.19;;;6.62;76.89
11692;BME280;33659;42.672;23.354;2024-02-21T01:06:00;67694.44;;;6.67;76.93
11692;BME280;33659;42.672;23.354;2024-02-21T01:08:27;67701.88;;;6.71;76.75
11692;BME280;33659;42.672;23.354;2024-02-21T01:10:55;67703.91;;;6.71;76.69
11692;BME280;33659;42.672;23.354;2024-02-21T01:13:22;67709.28;;;6.76;76.46
11692;BME280;33659;42.672;23.354;2024-02-21T01:15:48;67706.72;;;6.76;76.41
11692;BME280;33659;42.672;23.354;2024-02-21T01:18:15;67704.03;;;6.73;76.73
11692;BME280;33659;42.672;23.354;2024-02-21T01:20:42;67711.47;;;6.78;76.55
11692;BME280;33659;42.672;23.354;2024-02-21T01:23:08;67717.94;;;6.84;76.46
11692;BME280;33659;42.672;23.354;2024-02-21T01:25:35;67720.63;;;6.87;75.95
11692;BME280;33659;42.672;23.354;2024-02-21T01:28:03;67722.78;;;6.89;75.97
11692;BME280;33659;42.672;23.354;2024-02-21T01:30:30;67719.66;;;6.88;75.84
11692;BME280;33659;42.672;23.354;2024-02-21T01:32:57;67717.94;;;6.84;76.06
11692;BME280;33659;42.672;23.354;2024-02-21T01:35:24;67728.72;;;6.94;75.74
11692;BME280;33659;42.672;23.354;2024-02-21T01:37:50;67731.97;;;6.97;75.67
11692;BME280;33659;42.672;23.354;2024-02-21T01:40:17;67739.50;;;7.04;75.23
11692;BME280;33659;42.672;23.354;2024-02-21T01:42:44;67734.13;;;6.99;74.84
11692;BME280;33659;42.672;23.354;2024-02-21T01:45:14;67742.19;;;7.07;74.67
11692;BME280;33659;42.672;23.354;2024-02-21T01:47:41;67740.59;;;7.05;74.36
11692;BME280;33659;42.672;23.354;2024-02-21T01:50:09;67738.44;;;7.03;74.23
11692;BME280;33659;42.672;23.354;2024-02-21T01:52:36;67732.38;;;6.95;74.26
11692;BME280;33659;42.672;23.354;2024-02-21T01:55:03;67733.56;;;6.99;74.54
11692;BME280;33659;42.672;23.354;2024-02-21T01:57:30;67726.56;;;6.92;74.65
11692;BME280;33659;42.672;23.354;2024-02-21T01:59:57;67733.47;;;6.96;74.33
11692;BME280;33659;42.672;23.354;2024-02-21T02:02:26;67732.63;;;7.00;74.35
11692;BME280;33659;42.672;23.354;2024-02-21T02:04:52;67732.50;;;6.98;74.05
11692;BME280;33659;42.672;23.354;2024-02-21T02:07:19;67721.16;;;6.87;74.22
11692;BME280;33659;42.672;23.354;2024-02-21T02:09:46;67731.97;;;6.97;73.97
11692;BME280;33659;42.672;23.354;2024-02-21T02:12:12;67733.03;;;6.98;73.51
11692;BME280;33659;42.672;23.354;2024-02-21T02:14:39;67740.59;;;7.05;73.49
11692;BME280;33659;42.672;23.354;2024-02-21T02:17:06;67731.97;;;6.97;73.42
11692;BME280;33659;42.672;23.354;2024-02-21T02:19:35;67731.97;;;6.97;73.61
11692;BME280;33659;42.672;23.354;2024-02-21T02:22:08;67728.19;;;6.94;73.77
11692;BME280;33659;42.672;23.354;2024-02-21T02:24:37;67722.78;;;6.89;74.03
11692;BME280;33659;42.672;23.354;2024-02-21T02:27:04;67724.41;;;6.90;74.16
11692;BME280;33659;42.672;23.354;2024-02-21T02:29:32;67727.63;;;6.93;74.32
11692;BME280;33659;42.672;23.354;2024-02-21T02:31:58;67725.47;;;6.91;74.35
11692;BME280;33659;42.672;23.354;2024-02-21T02:34:25;67731.97;;;6.97;74.14
11692;BME280;33659;42.672;23.354;2024-02-21T02:36:52;67731.97;;;6.97;73.92
11692;BME280;33659;42.672;23.354;2024-02-21T02:39:20;67737.91;;;7.03;73.87
11692;BME280;33659;42.672;23.354;2024-02-21T02:41:48;67748.03;;;7.10;73.50
11692;BME280;33659;42.672;23.354;2024-02-21T02:44:14;67747.59;;;7.12;73.46
11692;BME280;33659;42.672;23.354;2024-02-21T02:46:41;67750.44;;;7.17;73.24
11692;BME280;33659;42.672;23.354;2024-02-21T02:49:08;67753.00;;;7.17;72.96
11692;BME280;33659;42.672;23.354;2024-02-21T02:51:35;67758.41;;;7.22;72.99
11692;BME280;33659;42.672;23.354;2024-02-21T02:54:02;67763.78;;;7.27;72.70
11692;BME280;33659;42.672;23.354;2024-02-21T02:56:29;67763.25;;;7.27;72.52
11692;BME280;33659;42.672;23.354;2024-02-21T02:58:57;67760.03;;;7.24;72.90
11692;BME280;33659;42.672;23.354;2024-02-21T03:01:24;67757.88;;;7.22;72.93
11692;BME280;33659;42.672;23.354;2024-02-21T03:03:50;67746.63;;;7.14;73.30
11692;BME280;33659;42.672;23.354;2024-02-21T03:06:17;67747.72;;;7.15;73.36
11692;BME280;33659;42.672;23.354;2024-02-21T03:08:44;67749.22;;;7.14;73.20
11692;BME280;33659;42.672;23.354;2024-02-21T03:11:10;67747.06;;;7.12;73.50
11692;BME280;33659;42.672;23.354;2024-02-21T03:13:37;67756.78;;;7.21;73.31
11692;BME280;33659;42.672;23.354;2024-02-21T03:16:06;67760.25;;;7.29;72.92
11692;BME280;33659;42.672;23.354;2024-02-21T03:18:32;67767.56;;;7.31;72.75
11692;BME280;33659;42.672;23.354;2024-02-21T03:20:59;67761.53;;;7.23;73.16
11692;BME280;33659;42.672;23.354;2024-02-21T03:23:26;67757.88;;;7.22;73.02
11692;BME280;33659;42.672;23.354;2024-02-21T03:25:52;67754.63;;;7.19;73.05
11692;BME280;33659;42.672;23.354;2024-02-21T03:28:19;67755.81;;;7.22;73.13
11692;BME280;33659;42.672;23.354;2024-02-21T03:30:46;67761.63;;;7.25;72.79
11692;BME280;33659;42.672;23.354;2024-02-21T03:33:14;67756.91;;;7.23;72.77
11692;BME280;33659;42.672;23.354;2024-02-21T03:35:40;67763.78;;;7.27;72.79
11692;BME280;33659;42.672;23.354;2024-02-21T03:38:07;67763.25;;;7.27;72.60
11692;BME280;33659;42.672;23.354;2024-02-21T03:40:34;67764.88;;;7.28;72.57
11692;BME280;33659;42.672;23.354;2024-02-21T03:43:01;67766.50;;;7.30;72.46
11692;BME280;33659;42.672;23.354;2024-02-21T03:45:27;67761.53;;;7.23;72.59
11692;BME280;33659;42.672;23.354;2024-02-21T03:47:55;67756.78;;;7.21;73.00
11692;BME280;33659;42.672;23.354;2024-02-21T03:50:23;67755.69;;;7.20;72.96
11692;BME280;33659;42.672;23.354;2024-02-21T03:52:51;67756.38;;;7.23;72.55
11692;BME280;33659;42.672;23.354;2024-02-21T03:55:17;67758.94;;;7.23;72.65
11692;BME280;33659;42.672;23.354;2024-02-21T03:57:44;67756.78;;;7.21;72.80
11692;BME280;33659;42.672;23.354;2024-02-21T04:00:11;67746.25;;;7.16;72.78
11692;BME280;33659;42.672;23.354;2024-02-21T04:02:38;67742.75;;;7.07;73.10
11692;BME280;33659;42.672;23.354;2024-02-21T04:05:05;67735.19;;;7.00;73.38
11692;BME280;33659;42.672;23.354;2024-02-21T04:07:37;67721.16;;;6.87;74.18
11692;BME280;33659;42.672;23.354;2024-02-21T04:10:04;67710.91;;;6.77;74.42
11692;BME280;33659;42.672;23.354;2024-02-21T04:12:31;67729.25;;;6.95;74.25
11692;BME280;33659;42.672;23.354;2024-02-21T04:14:58;67737.38;;;7.02;73.72
11692;BME280;33659;42.672;23.354;2024-02-21T04:17:24;67740.06;;;7.05;73.23
11692;BME280;33659;42.672;23.354;2024-02-21T04:20:01;67752.34;;;7.14;73.04
11692;BME280;33659;42.672;23.354;2024-02-21T04:22:30;67743.16;;;7.05;73.41
11692;BME280;33659;42.672;23.354;2024-02-21T04:24:59;67751.38;;;7.16;73.08
11692;BME280;33659;42.672;23.354;2024-02-21T04:27:26;67745.56;;;7.13;72.70
11692;BME280;33659;42.672;23.354;2024-02-21T04:29:53;67760.44;;;7.22;72.46
11692;BME280;33659;42.672;23.354;2024-02-21T04:32:19;67759.47;;;7.23;72.23
11692;BME280;33659;42.672;23.354;2024-02-21T04:34:46;67761.09;;;7.25;72.33
11692;BME280;33659;42.672;23.354;2024-02-21T04:37:13;67742.88;;;7.10;72.48
11692;BME280;33659;42.672;23.354;2024-02-21T04:39:39;67749.75;;;7.14;72.50
11692;BME280;33659;42.672;23.354;2024-02-21T04:42:07;67755.16;;;7.19;72.45
11692;BME280;33659;42.672;23.354;2024-02-21T04:44:34;67758.94;;;7.23;72.33
11692;BME280;33659;42.672;23.354;2024-02-21T04:47:01;67762.72;;;7.26;72.12
11692;BME280;33659;42.672;23.354;2024-02-21T04:49:28;67762.16;;;7.26;72.00
11692;BME280;33659;42.672;23.354;2024-02-21T04:51:55;67754.63;;;7.19;72.27
11692;BME280;33659;42.672;23.354;2024-02-21T04:54:22;67744.91;;;7.10;72.62
11692;BME280;33659;42.672;23.354;2024-02-21T04:56:48;67744.38;;;7.09;72.36
11692;BME280;33659;42.672;23.354;2024-02-21T04:59:16;67740.06;;;7.05;72.61
11692;BME280;33659;42.672;23.354;2024-02-21T05:01:43;67736.25;;;7.01;72.60
11692;BME280;33659;42.672;23.354;2024-02-21T05:04:10;67733.69;;;7.01;72.84
11692;BME280;33659;42.672;23.354;2024-02-21T05:06:37;67743.69;;;7.06;72.78
11692;BME280;33659;42.672;23.354;2024-02-21T05:09:05;67740.59;;;7.05;72.61
11692;BME280;33659;42.672;23.354;2024-02-21T05:11:32;67738.97;;;7.04;72.72
11692;BME280;33659;42.672;23.354;2024-02-21T05:13:58;67738.97;;;7.04;72.72
11692;BME280;33659;42.672;23.354;2024-02-21T05:16:26;67739.50;;;7.04;72.66
11692;BME280;33659;42.672;23.354;2024-02-21T05:18:53;67741.13;;;7.06;73.09
11692;BME280;33659;42.672;23.354;2024-02-21T05:21:21;67731.41;;;6.97;72.97
11692;BME280;33659;42.672;23.354;2024-02-21T05:23:49;67743.84;;;7.09;72.69
11692;BME280;33659;42.672;23.354;2024-02-21T05:26:20;67734.34;;;7.04;72.93
11692;BME280;33659;42.672;23.354;2024-02-21T05:28:47;67741.13;;;7.06;72.58
11692;BME280;33659;42.672;23.354;2024-02-21T05:31:15;67716.31;;;6.83;72.84
11692;BME280;33659;42.672;23.354;2024-02-21T05:33:43;67736.81;;;7.02;73.03
11692;BME280;33659;42.672;23.354;2024-02-21T05:36:09;67733.56;;;6.99;73.33
11692;BME280;33659;42.672;23.354;2024-02-21T05:38:36;67733.56;;;6.99;73.33
11692;BME280;33659;42.672;23.354;2024-02-21T05:41:03;67738.97;;;7.04;73.09
11692;BME280;33659;42.672;23.354;2024-02-21T05:43:30;67749.34;;;7.16;73.32
11692;BME280;33659;42.672;23.354;2024-02-21T05:45:57;67749.22;;;7.14;72.70
11692;BME280;33659;42.672;23.354;2024-02-21T05:48:24;67770.25;;;7.33;71.99
11692;BME280;33659;42.672;23.354;2024-02-21T05:50:52;67774.06;;;7.37;71.67
11692;BME280;33659;42.672;23.354;2024-02-21T05:53:19;67773.09;;;7.39;71.61
11692;BME280;33659;42.672;23.354;2024-02-21T05:55:45;67782.16;;;7.45;71.38
11692;BME280;33659;42.672;23.354;2024-02-21T05:58:12;67782.69;;;7.45;71.01
11692;BME280;33659;42.672;23.354;2024-02-21T06:00:39;67790.25;;;7.52;70.94
11692;BME280;33659;42.672;23.354;2024-02-21T06:03:05;67795.09;;;7.57;70.68
11692;BME280;33659;42.672;23.354;2024-02-21T06:05:37;67799.44;;;7.61;70.25
11692;BME280;33659;42.672;23.354;2024-02-21T06:08:05;67799.97;;;7.62;70.01
11692;BME280;33659;42.672;23.354;2024-02-21T06:10:33;67798.88;;;7.60;69.47
11692;BME280;33659;42.672;23.354;2024-02-21T06:13:00;67790.91;;;7.55;69.71
11692;BME280;33659;42.672;23.354;2024-02-21T06:15:26;67794.56;;;7.56;69.48
11692;BME280;33659;42.672;23.354;2024-02-21T06:17:53;67788.72;;;7.53;69.66
11692;BME280;33659;42.672;23.354;2024-02-21T06:20:20;67799.97;;;7.62;69.22
11692;BME280;33659;42.672;23.354;2024-02-21T06:22:47;67805.91;;;7.67;68.99
11692;BME280;33659;42.672;23.354;2024-02-21T06:25:15;67811.28;;;7.72;69.00
11692;BME280;33659;42.672;23.354;2024-02-21T06:27:41;67814.00;;;7.75;68.83
11692;BME280;33659;42.672;23.354;2024-02-21T06:30:09;67811.28;;;7.72;69.14
11692;BME280;33659;42.672;23.354;2024-02-21T06:32:36;67815.63;;;7.76;69.16
11692;BME280;33659;42.672;23.354;2024-02-21T06:35:04;67821.56;;;7.82;68.86
11692;BME280;33659;42.672;23.354;2024-02-21T06:37:30;67823.72;;;7.84;68.69
11692;BME280;33659;42.672;23.354;2024-02-21T06:39:57;67832.91;;;7.93;68.81
11692;BME280;33659;42.672;23.354;2024-02-21T06:42:25;67839.94;;;7.99;68.21
11692;BME280;33659;42.672;23.354;2024-02-21T06:44:52;67845.84;;;8.05;67.93
11692;BME280;33659;42.672;23.354;2024-02-21T06:47:19;67852.75;;;8.09;67.46
11692;BME280;33659;42.672;23.354;2024-02-21T06:49:49;67848.56;;;8.07;67.80
11692;BME280;33659;42.672;23.354;2024-02-21T06:52:17;67849.09;;;8.08;67.79
11692;BME280;33659;42.672;23.354;2024-02-21T06:54:45;67846.53;;;8.08;67.90
11692;BME280;33659;42.672;23.354;2024-02-21T06:57:12;67853.97;;;8.12;67.24
11692;BME280;33659;42.672;23.354;2024-02-21T06:59:41;67856.53;;;8.12;67.58
11692;BME280;33659;42.672;23.354;2024-02-21T07:02:08;67864.75;;;8.23;67.39
11692;BME280;33659;42.672;23.354;2024-02-21T07:04:35;67872.31;;;8.30;66.85
11692;BME280;33659;42.672;23.354;2024-02-21T07:07:01;67871.91;;;8.32;67.23
11692;BME280;33659;42.672;23.354;2024-02-21T07:09:28;67876.66;;;8.34;67.12
11692;BME280;33659;42.672;23.354;2024-02-21T07:11:57;67855.69;;;8.17;67.15
11692;BME280;33659;42.672;23.354;2024-02-21T07:14:24;67846.53;;;8.08;67.88
11692;BME280;33659;42.672;23.354;2024-02-21T07:16:52;67855.69;;;8.17;67.62
11692;BME280;33659;42.672;23.354;2024-02-21T07:19:18;67859.91;;;8.18;67.90
11692;BME280;33659;42.672;23.354;2024-02-21T07:21:45;67856.66;;;8.15;67.94
11692;BME280;33659;42.672;23.354;2024-02-21T07:24:13;67855.03;;;8.13;68.00
11692;BME280;33659;42.672;23.354;2024-02-21T07:26:41;67845.84;;;8.05;68.35
11692;BME280;33659;42.672;23.354;2024-02-21T07:29:08;67847.47;;;8.06;68.45
11692;BME280;33659;42.672;23.354;2024-02-21T07:31:39;67849.09;;;8.08;68.38
11692;BME280;33659;42.672;23.354;2024-02-21T07:34:07;67848.56;;;8.07;68.20
11692;BME280;33659;42.672;23.354;2024-02-21T07:36:34;67851.25;;;8.10;68.12
11692;BME280;33659;42.672;23.354;2024-02-21T07:39:00;67842.50;;;7.99;68.44
11692;BME280;33659;42.672;23.354;2024-02-21T07:41:28;67832.38;;;7.92;68.86
11692;BME280;33659;42.672;23.354;2024-02-21T07:43:55;67832.91;;;7.93;68.71
11692;BME280;33659;42.672;23.354;2024-02-21T07:46:22;67833.97;;;7.94;68.80
11692;BME280;33659;42.672;23.354;2024-02-21T07:48:49;67841.00;;;8.00;68.69
11692;BME280;33659;42.672;23.354;2024-02-21T07:51:17;67836.69;;;7.96;69.05
11692;BME280;33659;42.672;23.354;2024-02-21T07:53:45;67853.28;;;8.09;68.86
11692;BME280;33659;42.672;23.354;2024-02-21T07:56:11;67862.59;;;8.21;68.93
11692;BME280;33659;42.672;23.354;2024-02-21T07:58:39;67855.69;;;8.17;68.52
11692;BME280;33659;42.672;23.354;2024-02-21T08:01:06;67858.28;;;8.17;68.08
11692;BME280;33659;42.672;23.354;2024-02-21T08:03:32;67867.88;;;8.23;68.01
11692;BME280;33659;42.672;23.354;2024-02-21T08:05:59;67878.81;;;8.36;68.04
11692;BME280;33659;42.672;23.354;2024-02-21T08:08:27;67900.44;;;8.56;66.92
11692;BME280;33659;42.672;23.354;2024-02-21T08:10:54;67911.78;;;8.67;66.94
11692;BME280;33659;42.672;23.354;2024-02-21T08:13:20;67922.06;;;8.77;66.67
11692;BME280;33659;42.672;23.354;2024-02-21T08:15:47;67926.38;;;8.81;66.13
11692;BME280;33659;42.672;23.354;2024-02-21T08:18:14;67919.88;;;8.75;66.42
11692;BME280;33659;42.672;23.354;2024-02-21T08:20:40;67912.31;;;8.67;66.81
11692;BME280;33659;42.672;23.354;2024-02-21T08:23:07;67919.88;;;8.75;66.86
11692;BME280;33659;42.672;23.354;2024-02-21T08:25:35;67929.63;;;8.84;66.97
11692;BME280;33659;42.672;23.354;2024-02-21T08:28:02;67936.09;;;8.90;65.70
11692;BME280;33659;42.672;23.354;2024-02-21T08:30:29;67947.97;;;9.01;65.39
11692;BME280;33659;42.672;23.354;2024-02-21T08:32:56;67959.88;;;9.12;65.32
11692;BME280;33659;42.672;23.354;2024-02-21T08:35:22;67970.69;;;9.22;64.66
11692;BME280;33659;42.672;23.354;2024-02-21T08:37:49;67995.00;;;9.45;64.10
11692;BME280;33659;42.672;23.354;2024-02-21T08:40:16;67994.47;;;9.45;63.35
11692;BME280;33659;42.672;23.354;2024-02-21T08:42:47;68000.84;;;9.48;63.52
11692;BME280;33659;42.672;23.354;2024-02-21T08:45:14;67999.88;;;9.50;63.37
11692;BME280;33659;42.672;23.354;2024-02-21T08:47:41;68005.16;;;9.53;63.30
11692;BME280;33659;42.672;23.354;2024-02-21T08:50:08;68000.94;;;9.51;63.62
11692;BME280;33659;42.672;23.354;2024-02-21T08:52:36;67991.22;;;9.42;62.42
11692;BME280;33659;42.672;23.354;2024-02-21T08:55:03;67987.44;;;9.38;62.85
11692;BME280;33659;42.672;23.354;2024-02-21T08:57:30;67986.25;;;9.35;62.56
11692;BME280;33659;42.672;23.354;2024-02-21T09:00:03;67983.66;;;9.35;62.02
11692;BME280;33659;42.672;23.354;2024-02-21T09:02:35;67976.63;;;9.28;62.49
11692;BME280;33659;42.672;23.354;2024-02-21T09:05:02;67978.69;;;9.28;63.17
11692;BME280;33659;42.672;23.354;2024-02-21T09:07:30;67989.63;;;9.40;63.36
11692;BME280;33659;42.672;23.354;2024-02-21T09:09:57;67979.88;;;9.31;62.91
11692;BME280;33659;42.672;23.354;2024-02-21T09:12:23;67970.16;;;9.22;63.30
11692;BME280;33659;42.672;23.354;2024-02-21T09:14:50;67967.88;;;9.17;63.67
11692;BME280;33659;42.672;23.354;2024-02-21T09:17:18;67958.69;;;9.09;65.83
11692;BME280;33659;42.672;23.354;2024-02-21T09:19:45;67954.47;;;9.07;65.73
11692;BME280;33659;42.672;23.354;2024-02-21T09:22:12;67964.97;;;9.22;67.46
11692;BME280;33659;42.672;23.354;2024-02-21T09:24:39;67988.50;;;9.39;66.85
11692;BME280;33659;42.672;23.354;2024-02-21T09:27:05;68005.28;;;9.55;66.25
11692;BME280;33659;42.672;23.354;2024-02-21T09:29:32;68029.59;;;9.78;65.62
11692;BME280;33659;42.672;23.354;2024-02-21T09:31:59;68032.19;;;9.78;64.27
11692;BME280;33659;42.672;23.354;2024-02-21T09:34:27;68040.97;;;9.89;64.99
11692;BME280;33659;42.672;23.354;2024-02-21T09:36:54;68055.88;;;9.98;64.43
11692;BME280;33659;42.672;23.354;2024-02-21T09:39:20;68027.44;;;9.76;63.64
11692;BME280;33659;42.672;23.354;2024-02-21T09:41:50;68034.91;;;9.81;63.57
11692;BME280;33659;42.672;23.354;2024-02-21T09:44:21;68034.47;;;9.83;63.36
11692;BME280;33659;42.672;23.354;2024-02-21T09:46:52;68026.91;;;9.75;63.78
11692;BME280;33659;42.672;23.354;2024-02-21T09:49:31;68041.94;;;9.87;62.58
11692;BME280;33659;42.672;23.354;2024-02-21T09:52:00;68030.16;;;9.78;63.19
11692;BME280;33659;42.672;23.354;2024-02-21T09:54:29;68037.19;;;9.85;64.82
11692;BME280;33659;42.672;23.354;2024-02-21T09:56:56;68050.81;;;10.00;62.75
11692;BME280;33659;42.672;23.354;2024-02-21T09:59:24;68069.09;;;10.15;61.67
11692;BME280;33659;42.672;23.354;2024-02-21T10:01:51;68075.03;;;10.21;61.55
11692;BME280;33659;42.672;23.354;2024-02-21T10:04:18;68076.66;;;10.22;62.22
11692;BME280;33659;42.672;23.354;2024-02-21T10:06:47;68090.09;;;10.33;61.91
11692;BME280;33659;42.672;23.354;2024-02-21T10:09:23;68098.31;;;10.43;60.29
11692;BME280;33659;42.672;23.354;2024-02-21T10:11:50;68109.16;;;10.53;59.02
11692;BME280;33659;42.672;23.354;2024-02-21T10:14:17;68109.59;;;10.51;59.81
11692;BME280;33659;42.672;23.354;2024-02-21T10:16:44;68124.84;;;10.68;58.97
11692;BME280;33659;42.672;23.354;2024-02-21T10:19:18;68134.47;;;10.74;58.73
11692;BME280;33659;42.672;23.354;2024-02-21T10:22:00;68145.31;;;10.84;58.29
11692;BME280;33659;42.672;23.354;2024-02-21T10:24:29;68159.38;;;10.98;56.89
11692;BME280;33659;42.672;23.354;2024-02-21T10:27:02;68138.91;;;10.81;56.42
11692;BME280;33659;42.672;23.354;2024-02-21T10:29:29;68125.81;;;10.66;56.70
11692;BME280;33659;42.672;23.354;2024-02-21T10:32:07;68099.84;;;10.42;56.02
11692;BME280;33659;42.672;23.354;2024-02-21T10:34:34;68095.53;;;10.38;55.90
11692;BME280;33659;42.672;23.354;2024-02-21T10:37:03;68095.53;;;10.38;56.89
11692;BME280;33659;42.672;23.354;2024-02-21T10:39:31;68084.25;;;10.29;56.95
11692;BME280;33659;42.672;23.354;2024-02-21T10:42:00;68107.53;;;10.51;55.98
11692;BME280;33659;42.672;23.354;2024-02-21T10:44:28;68120.41;;;10.61;57.02
11692;BME280;33659;42.672;23.354;2024-02-21T10:46:55;68141.09;;;10.83;56.43
11692;BME280;33659;42.672;23.354;2024-02-21T10:49:23;68164.25;;;11.02;55.39
11692;BME280;33659;42.672;23.354;2024-02-21T10:51:54;68186.53;;;11.26;55.62
11692;BME280;33659;42.672;23.354;2024-02-21T10:54:34;68196.72;;;11.33;54.61
11692;BME280;33659;42.672;23.354;2024-02-21T10:57:06;68207.66;;;11.46;54.17
11692;BME280;33659;42.672;23.354;2024-02-21T10:59:34;68243.28;;;11.77;54.20
11692;BME280;33659;42.672;23.354;2024-02-21T11:02:01;68288.28;;;12.19;53.36
11692;BME280;33659;42.672;23.354;2024-02-21T11:04:28;68336.50;;;12.64;52.45
11692;BME280;33659;42.672;23.354;2024-02-21T11:06:57;68352.88;;;12.82;50.99
11692;BME280;33659;42.672;23.354;2024-02-21T11:09:31;68361.97;;;12.88;50.81
11692;BME280;33659;42.672;23.354;2024-02-21T11:11:58;68333.78;;;12.62;49.01
11692;BME280;33659;42.672;23.354;2024-02-21T11:14:27;68339.88;;;12.70;49.10
11692;BME280;33659;42.672;23.354;2024-02-21T11:16:54;68344.63;;;12.72;50.05
11692;BME280;33659;42.672;23.354;2024-02-21T11:19:23;68371.19;;;12.97;49.57
11692;BME280;33659;42.672;23.354;2024-02-21T11:21:51;68404.16;;;13.25;47.38
11692;BME280;33659;42.672;23.354;2024-02-21T11:24:28;68419.91;;;13.40;46.16
11692;BME280;33659;42.672;23.354;2024-02-21T11:27:07;68411.44;;;13.37;45.34
11692;BME280;33659;42.672;23.354;2024-02-21T11:29:40;68443.97;;;13.68;45.05
11692;BME280;33659;42.672;23.354;2024-02-21T11:32:09;68460.69;;;13.81;45.02
11692;BME280;33659;42.672;23.354;2024-02-21T11:34:36;68456.78;;;13.75;44.41
11692;BME280;33659;42.672;23.354;2024-02-21T11:37:13;68422.28;;;13.47;44.37
11692;BME280;33659;42.672;23.354;2024-02-21T11:39:41;68389.09;;;13.14;44.99
11692;BME280;33659;42.672;23.354;2024-02-21T11:42:09;68350.06;;;12.77;45.94
11692;BME280;33659;42.672;23.354;2024-02-21T11:44:38;68315.38;;;12.44;47.25
11692;BME280;33659;42.672;23.354;2024-02-21T11:47:08;68288.81;;;12.19;47.21
11692;BME280;33659;42.672;23.354;2024-02-21T11:49:37;68263.88;;;11.96;48.06
11692;BME280;33659;42.672;23.354;2024-02-21T11:52:05;68234.09;;;11.68;49.13
11692;BME280;33659;42.672;23.354;2024-02-21T11:54:32;68212.97;;;11.48;48.88
11692;BME280;33659;42.672;23.354;2024-02-21T11:56:59;68194.69;;;11.33;49.25
11692;BME280;33659;42.672;23.354;2024-02-21T11:59:29;68168.69;;;11.09;49.35
11692;BME280;33659;42.672;23.354;2024-02-21T12:01:58;68153.94;;;10.93;49.46
11692;BME280;33659;42.672;23.354;2024-02-21T12:04:25;68137.28;;;10.79;50.03
11692;BME280;33659;42.672;23.354;2024-02-21T12:06:52;68104.41;;;10.51;50.14
11692;BME280;33659;42.672;23.354;2024-02-21T12:09:19;68120.94;;;10.62;50.57
11692;BME280;33659;42.672;23.354;2024-02-21T12:11:57;68114.97;;;10.56;50.89
11692;BME280;33659;42.672;23.354;2024-02-21T12:14:25;68092.38;;;10.37;51.21
11692;BME280;33659;42.672;23.354;2024-02-21T12:16:53;68079.41;;;10.25;51.96
11692;BME280;33659;42.672;23.354;2024-02-21T12:19:20;68082.09;;;10.27;52.81
11692;BME280;33659;42.672;23.354;2024-02-21T12:21:48;68082.00;;;10.25;53.13
11692;BME280;33659;42.672;23.354;2024-02-21T12:24:17;68076.13;;;10.22;53.40
11692;BME280;33659;42.672;23.354;2024-02-21T12:26:45;68071.69;;;10.15;53.66
11692;BME280;33659;42.672;23.354;2024-02-21T12:29:12;68065.84;;;10.12;53.53
11692;BME280;33659;42.672;23.354;2024-02-21T12:31:39;68057.19;;;10.04;54.06
11692;BME280;33659;42.672;23.354;2024-02-21T12:34:07;68056.13;;;10.03;53.58
11692;BME280;33659;42.672;23.354;2024-02-21T12:36:40;68057.19;;;10.04;53.31
11692;BME280;33659;42.672;23.354;2024-02-21T12:39:08;68056.13;;;10.03;53.15
11692;BME280;33659;42.672;23.354;2024-02-21T12:41:35;68046.38;;;9.94;52.74
11692;BME280;33659;42.672;23.354;2024-02-21T12:44:03;68044.22;;;9.92;52.74
11692;BME280;33659;42.672;23.354;2024-02-21T12:46:32;68037.19;;;9.85;52.89
11692;BME280;33659;42.672;23.354;2024-02-21T12:48:59;68033.84;;;9.80;52.45
11692;BME280;33659;42.672;23.354;2024-02-21T12:51:27;68039.22;;;9.85;52.05
11692;BME280;33659;42.672;23.354;2024-02-21T12:53:54;68037.19;;;9.85;52.89
11692;BME280;33659;42.672;23.354;2024-02-21T12:56:21;68034.47;;;9.83;53.39
11692;BME280;33659;42.672;23.354;2024-02-21T12:58:47;68031.91;;;9.83;53.81
11692;BME280;33659;42.672;23.354;2024-02-21T13:01:14;68055.88;;;9.98;54.38